sensor_id;sensor_type;location;lat;lon;timestamp;pressure;altitude;pressure_sealevel;temperature;humidity
54389;BME280;40975;50.390;8.640;2023-02-20T00:01:31;100099.66;;;5.03;100.00
54389;BME280;40975;50.390;8.640;2023-02-20T00:03:56;100098.88;;;5.01;100.00
54389;BME280;40975;50.390;8.640;2023-02-20T00:06:21;100096.25;;;5.01;100.00
54389;BME280;40975;50.390;8.640;2023-02-20T00:08:47;100097.94;;;5.02;100.00
54389;BME280;40975;50.390;8.640;2023-02-20T00:11:12;100101.84;;;4.94;100.00
54389;BME280;40975;50.390;8.640;2023-02-20T00:13:37;100100.16;;;4.93;100.00
54389;BME280;40975;50.390;8.640;2023-02-20T00:16:03;100102.03;;;4.91;100.00
54389;BME280;40975;50.390;8.640;2023-02-20T00:18:29;100091.66;;;4.88;100.00
54389;BME280;40975;50.390;8.640;2023-02-20T00:20:54;100095.22;;;4.87;100.00
54389;BME280;40975;50.390;8.640;2023-02-20T00:23:19;100086.66;;;4.83;100.00
54389;BME280;40975;50.390;8.640;2023-02-20T00:25:45;100099.03;;;4.81;100.00
54389;BME280;40975;50.390;8.640;2023-02-20T00:28:10;100087.84;;;4.78;100.00
54389;BME280;40975;50.390;8.640;2023-02-20T00:30:37;100095.16;;;4.73;100.00
54389;BME280;40975;50.390;8.640;2023-02-20T00:33:02;100096.50;;;4.64;100.00
54389;BME280;40975;50.390;8.640;2023-02-20T00:35:27;100100.41;;;4.57;100.00
54389;BME280;40975;50.390;8.640;2023-02-20T00:37:54;100099.66;;;4.55;100.00
54389;BME280;40975;50.390;8.640;2023-02-20T00:40:21;100097.13;;;4.53;100.00
54389;BME280;40975;50.390;8.640;2023-02-20T00:42:47;100098.97;;;4.51;100.00
54389;BME280;40975;50.390;8.640;2023-02-20T00:45:14;100095.31;;;4.54;100.00
54389;BME280;40975;50.390;8.640;2023-02-20T00:47:39;100090.06;;;4.54;100.00
54389;BME280;40975;50.390;8.640;2023-02-20T00:50:06;100092.00;;;4.50;100.00
54389;BME280;40975;50.390;8.640;2023-02-20T00:52:31;100086.66;;;4.51;100.00
54389;BME280;40975;50.390;8.640;2023-02-20T00:54:56;100089.81;;;4.58;100.00
54389;BME280;40975;50.390;8.640;2023-02-20T00:57:22;100072.69;;;4.67;100.00
54389;BME280;40975;50.390;8.640;2023-02-20T00:59:47;100083.38;;;4.64;100.00
54389;BME280;40975;50.390;8.640;2023-02-20T01:02:13;100079.91;;;4.63;100.00
54389;BME280;40975;50.390;8.640;2023-02-20T01:04:38;100075.22;;;4.69;100.00
54389;BME280;40975;50.390;8.640;2023-02-20T01:07:04;100081.41;;;4.67;100.00
54389;BME280;40975;50.390;8.640;2023-02-20T01:09:30;100093.97;;;4.62;100.00
54389;BME280;40975;50.390;8.640;2023-02-20T01:11:55;100078.47;;;4.58;100.00
54389;BME280;40975;50.390;8.640;2023-02-20T01:14:21;100084.47;;;4.60;100.00
54389;BME280;40975;50.390;8.640;2023-02-20T01:16:49;100070.47;;;4.59;100.00
54389;BME280;40975;50.390;8.640;2023-02-20T01:19:16;100067.50;;;4.65;100.00
54389;BME280;40975;50.390;8.640;2023-02-20T01:21:41;100084.19;;;4.64;100.00
54389;BME280;40975;50.390;8.640;2023-02-20T01:24:07;100079.13;;;4.61;100.00
54389;BME280;40975;50.390;8.640;2023-02-20T01:26:32;100081.16;;;4.56;100.00
54389;BME280;40975;50.390;8.640;2023-02-20T01:28:58;100076.34;;;4.48;100.00
54389;BME280;40975;50.390;8.640;2023-02-20T01:31:23;100079.28;;;4.42;100.00
54389;BME280;40975;50.390;8.640;2023-02-20T01:33:48;100076.91;;;4.38;100.00
54389;BME280;40975;50.390;8.640;2023-02-20T01:36:14;100075.19;;;4.36;100.00
54389;BME280;40975;50.390;8.640;2023-02-20T01:38:40;100085.03;;;4.33;100.00
54389;BME280;40975;50.390;8.640;2023-02-20T01:41:07;100084.22;;;4.32;100.00
54389;BME280;40975;50.390;8.640;2023-02-20T01:43:32;100077.41;;;4.28;100.00
54389;BME280;40975;50.390;8.640;2023-02-20T01:49:03;100056.63;;;4.24;100.00
54389;BME280;40975;50.390;8.640;2023-02-20T01:51:32;100059.94;;;4.27;100.00
54389;BME280;40975;50.390;8.640;2023-02-20T01:53:59;100051.13;;;4.28;100.00
54389;BME280;40975;50.390;8.640;2023-02-20T01:56:25;100045.97;;;4.27;100.00
54389;BME280;40975;50.390;8.640;2023-02-20T01:58:51;100045.88;;;4.28;100.00
54389;BME280;40975;50.390;8.640;2023-02-20T02:01:17;100050.09;;;4.31;100.00
54389;BME280;40975;50.390;8.640;2023-02-20T02:03:46;100054.38;;;4.33;100.00
54389;BME280;40975;50.390;8.640;2023-02-20T02:06:15;100049.13;;;4.33;100.00
54389;BME280;40975;50.390;8.640;2023-02-20T02:08:43;100049.13;;;4.33;100.00
54389;BME280;40975;50.390;8.640;2023-02-20T02:11:14;100043.75;;;4.35;100.00
54389;BME280;40975;50.390;8.640;2023-02-20T02:13:41;100049.84;;;4.35;100.00
54389;BME280;40975;50.390;8.640;2023-02-20T02:22:44;100052.16;;;4.26;100.00
54389;BME280;40975;50.390;8.640;2023-02-20T02:25:26;100059.00;;;4.28;100.00
54389;BME280;40975;50.390;8.640;2023-02-20T02:29:00;100061.97;;;4.22;100.00
54389;BME280;40975;50.390;8.640;2023-02-20T02:37:30;100045.41;;;4.04;100.00
54389;BME280;40975;50.390;8.640;2023-02-20T02:40:03;100046.69;;;3.97;100.00
54389;BME280;40975;50.390;8.640;2023-02-20T02:42:50;100040.03;;;3.89;100.00
54389;BME280;40975;50.390;8.640;2023-02-20T02:45:18;100034.03;;;3.87;100.00
54389;BME280;40975;50.390;8.640;2023-02-20T02:47:54;100036.97;;;3.81;100.00
54389;BME280;40975;50.390;8.640;2023-02-20T02:50:26;100031.19;;;3.74;100.00
54389;BME280;40975;50.390;8.640;2023-02-20T02:52:53;100022.72;;;3.69;100.00
54389;BME280;40975;50.390;8.640;2023-02-20T02:55:27;100018.72;;;3.62;100.00
54389;BME280;40975;50.390;8.640;2023-02-20T02:57:53;100013.38;;;3.64;100.00
54389;BME280;40975;50.390;8.640;2023-02-20T03:00:23;100018.78;;;3.61;100.00
54389;BME280;40975;50.390;8.640;2023-02-20T03:03:01;100023.78;;;3.65;100.00
54389;BME280;40975;50.390;8.640;2023-02-20T03:05:43;100014.16;;;3.66;100.00
54389;BME280;40975;50.390;8.640;2023-02-20T03:11:08;100006.97;;;3.69;100.00
54389;BME280;40975;50.390;8.640;2023-02-20T03:13:44;100012.31;;;3.68;100.00
54389;BME280;40975;50.390;8.640;2023-02-20T03:19:16;100013.75;;;3.73;100.00
54389;BME280;40975;50.390;8.640;2023-02-20T03:21:45;100015.63;;;3.71;100.00
54389;BME280;40975;50.390;8.640;2023-02-20T03:24:13;100022.38;;;3.76;100.00
54389;BME280;40975;50.390;8.640;2023-02-20T03:26:43;100025.94;;;3.74;100.00
54389;BME280;40975;50.390;8.640;2023-02-20T03:29:13;100023.88;;;3.64;100.00
54389;BME280;40975;50.390;8.640;2023-02-20T03:31:52;100020.34;;;3.65;100.00
54389;BME280;40975;50.390;8.640;2023-02-20T03:34:38;100029.03;;;3.65;100.00
54389;BME280;40975;50.390;8.640;2023-02-20T03:37:24;100035.25;;;3.64;100.00
54389;BME280;40975;50.390;8.640;2023-02-20T03:40:12;100030.22;;;3.60;100.00
54389;BME280;40975;50.390;8.640;2023-02-20T03:43:10;100019.66;;;3.61;100.00
54389;BME280;40975;50.390;8.640;2023-02-20T03:45:58;100021.94;;;3.67;100.00
54389;BME280;40975;50.390;8.640;2023-02-20T03:48:39;100022.22;;;3.79;100.00
54389;BME280;40975;50.390;8.640;2023-02-20T03:51:07;100006.41;;;3.96;100.00
54389;BME280;40975;50.390;8.640;2023-02-20T03:53:43;99999.75;;;4.07;100.00
54389;BME280;40975;50.390;8.640;2023-02-20T03:56:14;99997.63;;;4.29;100.00
54389;BME280;40975;50.390;8.640;2023-02-20T03:58:46;99994.75;;;4.34;100.00
54389;BME280;40975;50.390;8.640;2023-02-20T04:01:14;99986.50;;;4.40;100.00
54389;BME280;40975;50.390;8.640;2023-02-20T04:03:44;99990.16;;;4.38;100.00
54389;BME280;40975;50.390;8.640;2023-02-20T04:06:13;99995.44;;;4.38;100.00
54389;BME280;40975;50.390;8.640;2023-02-20T04:08:52;99990.16;;;4.38;100.00
54389;BME280;40975;50.390;8.640;2023-02-20T04:11:38;100005.94;;;4.38;100.00
54389;BME280;40975;50.390;8.640;2023-02-20T04:14:06;100009.44;;;4.38;100.00
54389;BME280;40975;50.390;8.640;2023-02-20T04:16:42;100014.59;;;4.40;100.00
54389;BME280;40975;50.390;8.640;2023-02-20T04:19:10;100011.97;;;4.40;100.00
54389;BME280;40975;50.390;8.640;2023-02-20T04:21:48;100010.34;;;4.37;100.00
54389;BME280;40975;50.390;8.640;2023-02-20T04:24:18;100015.69;;;4.35;100.00
54389;BME280;40975;50.390;8.640;2023-02-20T04:26:46;100007.91;;;4.34;100.00
54389;BME280;40975;50.390;8.640;2023-02-20T04:29:12;100003.47;;;4.34;100.00
54389;BME280;40975;50.390;8.640;2023-02-20T04:31:37;100004.50;;;4.32;100.00
54389;BME280;40975;50.390;8.640;2023-02-20T04:34:03;100004.44;;;4.33;100.00
54389;BME280;40975;50.390;8.640;2023-02-20T04:36:29;100001.97;;;4.30;100.00
54389;BME280;40975;50.390;8.640;2023-02-20T04:38:57;99989.19;;;4.24;100.00
54389;BME280;40975;50.390;8.640;2023-02-20T04:41:26;99995.25;;;4.25;100.00
54389;BME280;40975;50.390;8.640;2023-02-20T04:43:52;99996.53;;;4.17;100.00
54389;BME280;40975;50.390;8.640;2023-02-20T04:46:38;100003.13;;;4.09;100.00
54389;BME280;40975;50.390;8.640;2023-02-20T04:49:03;99994.81;;;4.00;100.00
54389;BME280;40975;50.390;8.640;2023-02-20T04:51:28;99990.31;;;3.86;100.00
54389;BME280;40975;50.390;8.640;2023-02-20T04:53:54;99995.81;;;3.82;100.00
54389;BME280;40975;50.390;8.640;2023-02-20T04:56:19;100000.41;;;3.78;100.00
54389;BME280;40975;50.390;8.640;2023-02-20T04:58:46;100001.31;;;3.77;100.00
54389;BME280;40975;50.390;8.640;2023-02-20T05:01:17;99995.44;;;3.72;100.00
54389;BME280;40975;50.390;8.640;2023-02-20T05:03:42;99988.44;;;3.72;100.00
54389;BME280;40975;50.390;8.640;2023-02-20T05:06:07;99988.44;;;3.72;100.00
54389;BME280;40975;50.390;8.640;2023-02-20T05:08:32;99982.56;;;3.67;100.00
54389;BME280;40975;50.390;8.640;2023-02-20T05:10:58;99979.25;;;3.64;100.00
54389;BME280;40975;50.390;8.640;2023-02-20T05:13:23;99975.34;;;3.55;100.00
54389;BME280;40975;50.390;8.640;2023-02-20T05:15:48;99981.69;;;3.51;100.00
54389;BME280;40975;50.390;8.640;2023-02-20T05:18:23;99986.66;;;3.39;100.00
54389;BME280;40975;50.390;8.640;2023-02-20T05:20:49;99995.91;;;3.29;100.00
54389;BME280;40975;50.390;8.640;2023-02-20T05:23:32;99994.34;;;3.25;100.00
54389;BME280;40975;50.390;8.640;2023-02-20T05:25:58;99999.78;;;3.22;100.00
54389;BME280;40975;50.390;8.640;2023-02-20T05:28:23;99994.00;;;3.15;100.00
54389;BME280;40975;50.390;8.640;2023-02-20T05:30:48;99994.31;;;3.09;100.00
54389;BME280;40975;50.390;8.640;2023-02-20T05:33:14;99994.47;;;3.06;100.00
54389;BME280;40975;50.390;8.640;2023-02-20T05:35:39;99988.91;;;3.12;100.00
54389;BME280;40975;50.390;8.640;2023-02-20T05:38:05;99990.06;;;3.06;100.00
54389;BME280;40975;50.390;8.640;2023-02-20T05:40:31;99984.06;;;3.04;100.00
54389;BME280;40975;50.390;8.640;2023-02-20T05:42:56;99980.72;;;3.01;100.00
54389;BME280;40975;50.390;8.640;2023-02-20T05:45:21;99982.88;;;2.92;100.00
54389;BME280;40975;50.390;8.640;2023-02-20T05:47:47;99978.09;;;3.01;100.00
54389;BME280;40975;50.390;8.640;2023-02-20T05:50:12;99973.63;;;3.03;100.00
54389;BME280;40975;50.390;8.640;2023-02-20T05:52:37;99967.31;;;3.07;100.00
54389;BME280;40975;50.390;8.640;2023-02-20T05:55:03;99966.91;;;3.15;100.00
54389;BME280;40975;50.390;8.640;2023-02-20T05:57:28;99963.13;;;3.20;100.00
54389;BME280;40975;50.390;8.640;2023-02-20T05:59:54;99955.72;;;3.29;100.00
54389;BME280;40975;50.390;8.640;2023-02-20T06:02:19;99957.25;;;3.33;100.00
54389;BME280;40975;50.390;8.640;2023-02-20T06:04:44;99947.59;;;3.33;100.00
54389;BME280;40975;50.390;8.640;2023-02-20T06:07:10;99949.13;;;3.37;100.00
54389;BME280;40975;50.390;8.640;2023-02-20T06:09:35;99947.19;;;3.41;100.00
54389;BME280;40975;50.390;8.640;2023-02-20T06:12:01;99942.81;;;3.41;100.00
54389;BME280;40975;50.390;8.640;2023-02-20T06:14:26;99929.25;;;3.33;100.00
54389;BME280;40975;50.390;8.640;2023-02-20T06:16:52;99945.25;;;3.45;100.00
54389;BME280;40975;50.390;8.640;2023-02-20T06:19:22;99950.50;;;3.45;100.00
54389;BME280;40975;50.390;8.640;2023-02-20T06:21:49;99954.06;;;3.44;100.00
54389;BME280;40975;50.390;8.640;2023-02-20T06:24:16;99950.59;;;3.43;100.00
54389;BME280;40975;50.390;8.640;2023-02-20T06:26:41;99949.41;;;3.49;100.00
54389;BME280;40975;50.390;8.640;2023-02-20T06:29:07;99950.03;;;3.54;100.00
54389;BME280;40975;50.390;8.640;2023-02-20T06:31:33;99945.53;;;3.56;100.00
54389;BME280;40975;50.390;8.640;2023-02-20T06:33:58;99941.72;;;3.62;100.00
54389;BME280;40975;50.390;8.640;2023-02-20T06:36:27;99946.72;;;3.66;100.00
54389;BME280;40975;50.390;8.640;2023-02-20T06:38:53;99954.06;;;3.77;100.00
54389;BME280;40975;50.390;8.640;2023-02-20T06:41:18;99949.75;;;3.92;100.00
54389;BME280;40975;50.390;8.640;2023-02-20T06:43:44;99933.47;;;4.01;100.00
54389;BME280;40975;50.390;8.640;2023-02-20T06:46:10;99934.81;;;4.09;100.00
54389;BME280;40975;50.390;8.640;2023-02-20T06:48:45;99936.69;;;4.23;100.00
54389;BME280;40975;50.390;8.640;2023-02-20T06:51:11;99942.03;;;4.37;100.00
54389;BME280;40975;50.390;8.640;2023-02-20T06:53:36;99943.47;;;4.43;100.00
54389;BME280;40975;50.390;8.640;2023-02-20T06:56:07;99929.38;;;4.44;100.00
54389;BME280;40975;50.390;8.640;2023-02-20T06:58:32;99939.38;;;4.53;100.00
54389;BME280;40975;50.390;8.640;2023-02-20T07:00:57;99944.66;;;4.67;100.00
54389;BME280;40975;50.390;8.640;2023-02-20T07:03:24;99941.88;;;4.71;100.00
54389;BME280;40975;50.390;8.640;2023-02-20T07:05:49;99957.94;;;4.80;100.00
54389;BME280;40975;50.390;8.640;2023-02-20T07:08:14;99949.78;;;4.85;100.00
54389;BME280;40975;50.390;8.640;2023-02-20T07:10:40;99950.47;;;4.89;100.00
54389;BME280;40975;50.390;8.640;2023-02-20T07:13:05;99953.00;;;4.90;100.00
54389;BME280;40975;50.390;8.640;2023-02-20T07:15:30;99948.81;;;5.02;100.00
54389;BME280;40975;50.390;8.640;2023-02-20T07:17:56;99939.03;;;5.04;100.00
54389;BME280;40975;50.390;8.640;2023-02-20T07:20:21;99937.72;;;5.11;100.00
54389;BME280;40975;50.390;8.640;2023-02-20T07:22:50;99934.09;;;5.14;100.00
54389;BME280;40975;50.390;8.640;2023-02-20T07:25:15;99926.94;;;5.16;100.00
54389;BME280;40975;50.390;8.640;2023-02-20T07:27:41;99935.91;;;5.28;100.00
54389;BME280;40975;50.390;8.640;2023-02-20T07:30:06;99932.97;;;5.33;100.00
54389;BME280;40975;50.390;8.640;2023-02-20T07:32:32;99926.50;;;5.38;100.00
54389;BME280;40975;50.390;8.640;2023-02-20T07:34:57;99932.22;;;5.45;100.00
54389;BME280;40975;50.390;8.640;2023-02-20T07:37:22;99920.09;;;5.57;100.00
54389;BME280;40975;50.390;8.640;2023-02-20T07:39:48;99931.25;;;5.75;100.00
54389;BME280;40975;50.390;8.640;2023-02-20T07:42:16;99926.81;;;5.90;100.00
54389;BME280;40975;50.390;8.640;2023-02-20T07:44:48;99919.91;;;6.16;100.00
54389;BME280;40975;50.390;8.640;2023-02-20T07:47:14;99928.13;;;6.39;100.00
54389;BME280;40975;50.390;8.640;2023-02-20T07:49:39;99894.34;;;6.59;100.00
54389;BME280;40975;50.390;8.640;2023-02-20T07:52:04;99911.94;;;7.24;100.00
54389;BME280;40975;50.390;8.640;2023-02-20T07:54:30;99915.53;;;7.10;100.00
54389;BME280;40975;50.390;8.640;2023-02-20T07:56:55;99910.00;;;7.00;100.00
54389;BME280;40975;50.390;8.640;2023-02-20T07:59:21;99918.16;;;7.36;100.00
54389;BME280;40975;50.390;8.640;2023-02-20T08:01:47;99912.00;;;7.61;100.00
54389;BME280;40975;50.390;8.640;2023-02-20T08:04:12;99909.50;;;7.34;100.00
54389;BME280;40975;50.390;8.640;2023-02-20T08:06:38;99905.03;;;7.60;100.00
54389;BME280;40975;50.390;8.640;2023-02-20T08:09:03;99898.72;;;8.00;100.00
54389;BME280;40975;50.390;8.640;2023-02-20T08:11:34;99898.31;;;8.66;100.00
54389;BME280;40975;50.390;8.640;2023-02-20T08:14:00;99889.19;;;9.52;97.25
54389;BME280;40975;50.390;8.640;2023-02-20T08:16:25;99881.78;;;10.01;93.71
54389;BME280;40975;50.390;8.640;2023-02-20T08:18:51;99877.56;;;9.98;91.79
54389;BME280;40975;50.390;8.640;2023-02-20T08:21:17;99883.78;;;9.53;93.51
54389;BME280;40975;50.390;8.640;2023-02-20T08:23:43;99884.97;;;9.38;96.63
54389;BME280;40975;50.390;8.640;2023-02-20T08:26:09;99886.38;;;9.08;96.09
54389;BME280;40975;50.390;8.640;2023-02-20T08:28:34;99893.34;;;8.97;97.48
54389;BME280;40975;50.390;8.640;2023-02-20T08:30:59;99897.53;;;8.77;98.99
54389;BME280;40975;50.390;8.640;2023-02-20T08:33:25;99892.63;;;8.60;99.33
54389;BME280;40975;50.390;8.640;2023-02-20T08:35:50;99888.16;;;8.84;99.58
54389;BME280;40975;50.390;8.640;2023-02-20T08:40:48;99886.41;;;8.72;98.13
54389;BME280;40975;50.390;8.640;2023-02-20T08:43:13;99878.16;;;8.88;98.89
54389;BME280;40975;50.390;8.640;2023-02-20T08:45:38;99875.44;;;9.24;96.91
54389;BME280;40975;50.390;8.640;2023-02-20T08:48:04;99880.63;;;9.59;95.65
54389;BME280;40975;50.390;8.640;2023-02-20T08:50:29;99878.78;;;9.83;92.48
54389;BME280;40975;50.390;8.640;2023-02-20T08:52:54;99873.88;;;9.67;92.28
54389;BME280;40975;50.390;8.640;2023-02-20T08:55:20;99876.50;;;9.78;93.90
54389;BME280;40975;50.390;8.640;2023-02-20T08:57:45;99874.22;;;9.62;94.75
54389;BME280;40975;50.390;8.640;2023-02-20T09:00:12;99872.03;;;9.78;93.55
54389;BME280;40975;50.390;8.640;2023-02-20T09:02:38;99868.56;;;9.78;93.45
54389;BME280;40975;50.390;8.640;2023-02-20T09:05:03;99869.66;;;9.75;92.60
54389;BME280;40975;50.390;8.640;2023-02-20T09:07:29;99870.63;;;9.52;92.24
54389;BME280;40975;50.390;8.640;2023-02-20T09:09:54;99871.94;;;9.69;91.79
54389;BME280;40975;50.390;8.640;2023-02-20T09:12:19;99870.00;;;9.82;90.32
54389;BME280;40975;50.390;8.640;2023-02-20T09:14:45;99876.88;;;9.62;91.01
54389;BME280;40975;50.390;8.640;2023-02-20T09:17:10;99872.69;;;9.59;92.52
54389;BME280;40975;50.390;8.640;2023-02-20T09:19:35;99871.22;;;9.44;91.88
54389;BME280;40975;50.390;8.640;2023-02-20T09:22:01;99876.06;;;9.50;91.99
54389;BME280;40975;50.390;8.640;2023-02-20T09:24:26;99877.47;;;9.65;91.54
54389;BME280;40975;50.390;8.640;2023-02-20T09:26:59;99876.75;;;9.63;91.19
54389;BME280;40975;50.390;8.640;2023-02-20T09:29:25;99877.84;;;9.72;91.39
54389;BME280;40975;50.390;8.640;2023-02-20T09:31:51;99876.09;;;10.05;89.87
54389;BME280;40975;50.390;8.640;2023-02-20T09:34:16;99879.41;;;10.63;87.01
54389;BME280;40975;50.390;8.640;2023-02-20T09:36:41;99866.97;;;11.37;82.99
54389;BME280;40975;50.390;8.640;2023-02-20T09:39:07;99864.09;;;12.10;78.36
54389;BME280;40975;50.390;8.640;2023-02-20T09:41:56;99868.47;;;12.01;77.61
54389;BME280;40975;50.390;8.640;2023-02-20T09:44:37;99865.78;;;12.70;75.55
54389;BME280;40975;50.390;8.640;2023-02-20T09:47:18;99859.88;;;12.86;72.98
54389;BME280;40975;50.390;8.640;2023-02-20T09:49:49;99855.44;;;14.08;68.88
54389;BME280;40975;50.390;8.640;2023-02-20T09:52:16;99856.53;;;15.22;61.64
54389;BME280;40975;50.390;8.640;2023-02-20T09:54:45;99848.88;;;16.62;56.79
54389;BME280;40975;50.390;8.640;2023-02-20T09:57:16;99847.19;;;16.94;54.62
54389;BME280;40975;50.390;8.640;2023-02-20T09:59:50;99848.75;;;17.77;51.93
54389;BME280;40975;50.390;8.640;2023-02-20T10:02:27;99841.47;;;19.02;49.73
54389;BME280;40975;50.390;8.640;2023-02-20T10:04:56;99832.56;;;19.16;47.35
54389;BME280;40975;50.390;8.640;2023-02-20T10:07:38;99840.13;;;18.44;46.87
54389;BME280;40975;50.390;8.640;2023-02-20T10:13:14;99836.69;;;18.89;46.14
54389;BME280;40975;50.390;8.640;2023-02-20T10:18:55;99807.63;;;20.32;42.61
54389;BME280;40975;50.390;8.640;2023-02-20T10:26:36;99817.53;;;19.52;42.50
54389;BME280;40975;50.390;8.640;2023-02-20T10:29:15;99798.38;;;19.98;42.42
54389;BME280;40975;50.390;8.640;2023-02-20T10:31:45;99801.88;;;20.35;41.28
54389;BME280;40975;50.390;8.640;2023-02-20T10:34:17;99803.84;;;21.05;41.90
54389;BME280;40975;50.390;8.640;2023-02-20T10:36:49;99817.81;;;21.16;42.45
54389;BME280;40975;50.390;8.640;2023-02-20T10:39:22;99811.59;;;21.22;41.18
54389;BME280;40975;50.390;8.640;2023-02-20T10:44:40;99809.03;;;21.07;40.79
54389;BME280;40975;50.390;8.640;2023-02-20T10:47:13;99799.59;;;20.89;41.09
54389;BME280;40975;50.390;8.640;2023-02-20T10:52:34;99788.75;;;20.83;40.38
54389;BME280;40975;50.390;8.640;2023-02-20T10:55:11;99796.06;;;20.89;41.19
54389;BME280;40975;50.390;8.640;2023-02-20T10:57:46;99792.94;;;20.35;41.18
54389;BME280;40975;50.390;8.640;2023-02-20T11:00:20;99797.25;;;19.86;42.97
54389;BME280;40975;50.390;8.640;2023-02-20T11:02:52;99789.72;;;20.25;42.33
54389;BME280;40975;50.390;8.640;2023-02-20T11:05:24;99793.97;;;20.84;42.50
54389;BME280;40975;50.390;8.640;2023-02-20T11:07:50;99778.56;;;20.06;41.57
54389;BME280;40975;50.390;8.640;2023-02-20T11:10:17;99777.50;;;19.49;42.99
54389;BME280;40975;50.390;8.640;2023-02-20T11:12:52;99777.06;;;19.45;43.54
54389;BME280;40975;50.390;8.640;2023-02-20T11:15:23;99761.91;;;19.96;41.34
54389;BME280;40975;50.390;8.640;2023-02-20T11:17:51;99771.06;;;20.51;42.57
54389;BME280;40975;50.390;8.640;2023-02-20T11:23:00;99757.69;;;19.20;42.47
54389;BME280;40975;50.390;8.640;2023-02-20T11:25:29;99769.84;;;19.46;43.15
54389;BME280;40975;50.390;8.640;2023-02-20T11:28:08;99774.63;;;18.45;45.13
54389;BME280;40975;50.390;8.640;2023-02-20T11:30:36;99771.38;;;18.50;47.09
54389;BME280;40975;50.390;8.640;2023-02-20T11:33:18;99756.31;;;18.26;45.08
54389;BME280;40975;50.390;8.640;2023-02-20T11:35:48;99766.00;;;17.80;45.61
54389;BME280;40975;50.390;8.640;2023-02-20T11:40:58;99754.91;;;17.29;45.46
54389;BME280;40975;50.390;8.640;2023-02-20T11:43:38;99751.44;;;17.20;45.86
54389;BME280;40975;50.390;8.640;2023-02-20T11:46:18;99747.50;;;16.91;47.01
54389;BME280;40975;50.390;8.640;2023-02-20T11:48:58;99744.03;;;16.49;46.34
54389;BME280;40975;50.390;8.640;2023-02-20T11:51:34;99743.41;;;16.30;49.19
54389;BME280;40975;50.390;8.640;2023-02-20T11:54:14;99749.78;;;16.13;51.57
54389;BME280;40975;50.390;8.640;2023-02-20T11:56:57;99740.56;;;15.91;48.88
54389;BME280;40975;50.390;8.640;2023-02-20T12:01:54;99735.72;;;15.94;49.89
54389;BME280;40975;50.390;8.640;2023-02-20T12:04:34;99751.09;;;15.92;50.83
54389;BME280;40975;50.390;8.640;2023-02-20T12:07:00;99739.69;;;15.74;49.56
54389;BME280;40975;50.390;8.640;2023-02-20T12:09:42;99742.34;;;15.57;49.84
54389;BME280;40975;50.390;8.640;2023-02-20T12:12:12;99733.94;;;15.52;49.37
54389;BME280;40975;50.390;8.640;2023-02-20T12:14:38;99741.66;;;15.47;50.09
54389;BME280;40975;50.390;8.640;2023-02-20T12:17:41;99729.09;;;15.47;49.88
54389;BME280;40975;50.390;8.640;2023-02-20T12:20:18;99728.41;;;15.45;53.00
54389;BME280;40975;50.390;8.640;2023-02-20T12:46:00;99669.94;;;15.50;52.52
54389;BME280;40975;50.390;8.640;2023-02-20T12:48:45;99661.91;;;15.59;52.99
54389;BME280;40975;50.390;8.640;2023-02-20T12:51:27;99661.41;;;15.63;52.96
54389;BME280;40975;50.390;8.640;2023-02-20T12:54:22;99663.25;;;15.71;52.93
54389;BME280;40975;50.390;8.640;2023-02-20T12:57:06;99645.72;;;15.77;52.55
54389;BME280;40975;50.390;8.640;2023-02-20T12:59:59;99638.50;;;15.77;51.46
54389;BME280;40975;50.390;8.640;2023-02-20T13:02:42;99639.69;;;15.75;52.33
54389;BME280;40975;50.390;8.640;2023-02-20T13:05:13;99630.81;;;15.66;50.43
54389;BME280;40975;50.390;8.640;2023-02-20T13:07:46;99632.13;;;15.37;52.81
54389;BME280;40975;50.390;8.640;2023-02-20T13:10:18;99628.28;;;15.31;51.90
54389;BME280;40975;50.390;8.640;2023-02-20T13:12:44;99625.41;;;15.24;52.62
54389;BME280;40975;50.390;8.640;2023-02-20T13:15:36;99634.78;;;15.12;53.83
54389;BME280;40975;50.390;8.640;2023-02-20T13:21:23;99615.31;;;14.85;52.43
54389;BME280;40975;50.390;8.640;2023-02-20T13:23:50;99607.91;;;14.71;52.12
54389;BME280;40975;50.390;8.640;2023-02-20T13:28:52;99584.13;;;14.51;54.63
54389;BME280;40975;50.390;8.640;2023-02-20T13:31:21;99587.41;;;14.45;54.89
54389;BME280;40975;50.390;8.640;2023-02-20T13:44:51;99558.63;;;14.65;55.77
54389;BME280;40975;50.390;8.640;2023-02-20T13:55:17;99535.16;;;14.42;55.47
54389;BME280;40975;50.390;8.640;2023-02-20T13:57:55;99532.47;;;14.77;57.44
54389;BME280;40975;50.390;8.640;2023-02-20T14:00:33;99535.50;;;14.90;56.30
54389;BME280;40975;50.390;8.640;2023-02-20T14:03:30;99540.06;;;14.64;55.62
54389;BME280;40975;50.390;8.640;2023-02-20T14:08:34;99509.44;;;14.33;55.48
54389;BME280;40975;50.390;8.640;2023-02-20T14:11:12;99506.28;;;14.38;56.23
54389;BME280;40975;50.390;8.640;2023-02-20T14:13:40;99518.25;;;14.25;56.58
54389;BME280;40975;50.390;8.640;2023-02-20T14:16:33;99509.00;;;14.11;55.26
54389;BME280;40975;50.390;8.640;2023-02-20T14:19:06;99503.16;;;14.08;56.97
54389;BME280;40975;50.390;8.640;2023-02-20T14:21:35;99508.22;;;14.19;58.31
54389;BME280;40975;50.390;8.640;2023-02-20T14:24:18;99503.84;;;14.10;56.56
54389;BME280;40975;50.390;8.640;2023-02-20T14:26:44;99495.38;;;14.23;57.38
54389;BME280;40975;50.390;8.640;2023-02-20T14:31:51;99501.56;;;13.89;57.84
54389;BME280;40975;50.390;8.640;2023-02-20T14:34:55;99501.00;;;13.77;58.16
54389;BME280;40975;50.390;8.640;2023-02-20T14:40:37;99493.47;;;13.72;57.97
54389;BME280;40975;50.390;8.640;2023-02-20T14:43:14;99506.16;;;13.78;58.71
54389;BME280;40975;50.390;8.640;2023-02-20T14:45:41;99518.00;;;13.76;59.32
54389;BME280;40975;50.390;8.640;2023-02-20T14:48:21;99511.97;;;13.74;58.53
54389;BME280;40975;50.390;8.640;2023-02-20T14:50:46;99514.28;;;13.68;58.70
54389;BME280;40975;50.390;8.640;2023-02-20T14:53:14;99508.66;;;13.72;60.11
54389;BME280;40975;50.390;8.640;2023-02-20T14:55:40;99523.81;;;13.71;60.10
54389;BME280;40975;50.390;8.640;2023-02-20T14:58:17;99519.63;;;13.68;60.02